createdAt,value
2023-03-16T00:00:22.037Z,65.43
2023-03-16T00:02:49.805Z,71.30
2023-03-16T00:05:17.929Z,65.13
2023-03-16T00:07:46.958Z,69.33
2023-03-16T00:10:14.738Z,68.83
2023-03-16T00:12:43.563Z,65.87
2023-03-16T00:15:11.792Z,62.80
2023-03-16T00:17:39.435Z,62.40
2023-03-16T00:20:08.334Z,66.57
2023-03-16T00:22:36.106Z,59.17
2023-03-16T00:25:05.886Z,62.40
2023-03-16T00:27:33.561Z,64.27
2023-03-16T00:30:03.065Z,71.37
2023-03-16T00:32:34.192Z,62.83
2023-03-16T00:35:02.859Z,63.87
2023-03-16T00:37:32.736Z,65.40
2023-03-16T00:40:01.229Z,56.07
2023-03-16T00:42:34.050Z,61.23
2023-03-16T00:45:02.154Z,60.03
2023-03-16T00:47:31.744Z,65.50
2023-03-16T00:50:00.945Z,64.97
2023-03-16T00:52:30.050Z,59.30
2023-03-16T00:54:58.780Z,60.07
2023-03-16T00:57:30.118Z,59.30
2023-03-16T01:00:00.247Z,54.23
2023-03-16T01:02:28.347Z,59.20
2023-03-16T01:04:56.285Z,60.20
2023-03-16T01:07:24.046Z,58.13
2023-03-16T01:09:51.813Z,57.73
2023-03-16T01:12:20.531Z,57.03
2023-03-16T01:14:48.697Z,66.77
2023-03-16T01:17:19.117Z,63.83
2023-03-16T01:19:47.401Z,60.47
2023-03-16T01:22:16.303Z,60.80
2023-03-16T01:24:45.294Z,60.50
2023-03-16T01:27:14.706Z,64.83
2023-03-16T01:29:44.338Z,57.80
2023-03-16T01:32:13.048Z,62.97
2023-03-16T01:34:42.478Z,59.87
2023-03-16T01:37:12.330Z,62.80
2023-03-16T01:39:51.080Z,64.73
2023-03-16T01:42:18.892Z,64.13
2023-03-16T01:44:51.722Z,65.20
2023-03-16T01:47:19.430Z,58.37
2023-03-16T01:49:48.556Z,62.67
2023-03-16T01:52:20.133Z,59.70
2023-03-16T01:54:51.035Z,62.63
2023-03-16T01:57:20.910Z,63.40
2023-03-16T01:59:53.661Z,60.83
2023-03-16T02:02:25.020Z,61.30
2023-03-16T02:04:59.653Z,59.43
2023-03-16T02:07:29.374Z,55.97
2023-03-16T02:10:02.394Z,50.77
2023-03-16T02:12:30.991Z,58.40
2023-03-16T02:15:00.908Z,57.27
2023-03-16T02:17:31.910Z,59.17
2023-03-16T02:20:18.119Z,61.83
2023-03-16T02:22:49.904Z,54.53
2023-03-16T02:25:19.585Z,52.57
2023-03-16T02:27:57.880Z,60.13
2023-03-16T02:30:27.712Z,58.63
2023-03-16T02:33:05.588Z,59.43
2023-03-16T02:35:34.061Z,59.20
2023-03-16T02:38:03.280Z,57.73
2023-03-16T02:40:36.439Z,55.13
2023-03-16T02:43:10.824Z,61.43
2023-03-16T02:45:48.045Z,58.17
2023-03-16T02:48:23.700Z,62.07
2023-03-16T02:50:54.083Z,57.20
2023-03-16T02:53:21.848Z,58.67
2023-03-16T02:55:49.760Z,60.53
2023-03-16T02:58:18.576Z,57.03
2023-03-16T03:00:48.943Z,59.03
2023-03-16T03:03:18.338Z,64.40
2023-03-16T03:05:46.007Z,57.13
2023-03-16T03:08:14.667Z,61.10
2023-03-16T03:10:42.622Z,65.17
2023-03-16T03:13:12.239Z,56.97
2023-03-16T03:15:40.876Z,58.57
2023-03-16T03:18:14.609Z,59.80
2023-03-16T03:20:42.646Z,56.57
2023-03-16T03:23:11.277Z,60.93
2023-03-16T03:25:38.957Z,59.53
2023-03-16T03:28:06.735Z,64.00
2023-03-16T03:30:34.574Z,60.17
2023-03-16T03:33:02.778Z,55.90
2023-03-16T03:35:32.679Z,62.53
2023-03-16T03:38:00.433Z,58.60
2023-03-16T03:40:29.793Z,61.83
2023-03-16T03:43:01.395Z,62.00
2023-03-16T03:45:30.764Z,50.93
2023-03-16T03:47:58.583Z,53.67
2023-03-16T03:50:26.826Z,61.57
2023-03-16T03:53:20.907Z,57.30
2023-03-16T03:56:11.426Z,54.10
2023-03-16T03:58:40.113Z,59.27
2023-03-16T04:01:07.909Z,62.33
2023-03-16T04:03:35.656Z,68.07
2023-03-16T04:06:03.480Z,60.37
2023-03-16T04:08:33.765Z,59.37
2023-03-16T04:11:01.678Z,65.63
2023-03-16T04:13:29.893Z,65.23
2023-03-16T04:15:58.972Z,65.43
2023-03-16T04:18:30.375Z,60.53
2023-03-16T04:20:58.075Z,64.97
2023-03-16T04:23:26.704Z,66.23
2023-03-16T04:25:56.159Z,59.17
2023-03-16T04:28:26.463Z,57.33
2023-03-16T04:30:54.875Z,61.33
2023-03-16T04:33:34.672Z,71.47
2023-03-16T04:36:03.390Z,63.60
2023-03-16T04:38:33.627Z,64.13
2023-03-16T04:41:04.979Z,60.23
2023-03-16T04:43:36.384Z,63.13
2023-03-16T04:46:11.004Z,61.43
2023-03-16T04:48:39.281Z,60.30
2023-03-16T04:51:07.613Z,69.13
2023-03-16T04:53:39.224Z,72.57
2023-03-16T04:56:19.275Z,63.93
2023-03-16T04:58:51.833Z,62.97
2023-03-16T05:01:21.982Z,61.77
2023-03-16T05:03:52.808Z,59.40
2023-03-16T05:06:21.391Z,61.67
2023-03-16T05:08:49.151Z,60.80
2023-03-16T05:11:19.233Z,66.37
2023-03-16T05:13:54.741Z,63.97
2023-03-16T05:16:22.492Z,66.57
2023-03-16T05:18:52.811Z,61.93
2023-03-16T05:21:20.496Z,63.37
2023-03-16T05:23:58.337Z,59.80
2023-03-16T05:26:27.339Z,66.90
2023-03-16T05:28:56.233Z,60.87
2023-03-16T05:31:27.238Z,63.80
2023-03-16T05:33:59.240Z,66.70
2023-03-16T05:36:26.919Z,64.40
2023-03-16T05:38:59.322Z,68.27
2023-03-16T05:41:38.926Z,61.53
2023-03-16T05:44:33.441Z,57.43
2023-03-16T05:47:18.624Z,58.67
2023-03-16T05:49:51.407Z,57.70
2023-03-16T05:52:40.322Z,53.70
2023-03-16T05:55:17.439Z,49.33
2023-03-16T05:57:51.087Z,61.97
2023-03-16T06:00:20.741Z,66.30
2023-03-16T06:02:57.072Z,59.83
2023-03-16T06:05:30.375Z,61.80
2023-03-16T06:07:58.305Z,64.83
2023-03-16T06:10:27.906Z,60.83
2023-03-16T06:12:59.509Z,71.53
2023-03-16T06:15:30.364Z,57.20
2023-03-16T06:18:00.826Z,66.13
2023-03-16T06:20:29.312Z,69.53
2023-03-16T06:22:57.781Z,69.90
2023-03-16T06:25:26.398Z,68.40
2023-03-16T06:27:55.188Z,63.80
2023-03-16T06:30:24.556Z,77.67
2023-03-16T06:32:52.848Z,82.90
2023-03-16T06:35:21.245Z,91.07
2023-03-16T06:38:05.010Z,97.77
2023-03-16T06:40:55.972Z,89.23
2023-03-16T06:43:24.614Z,94.17
2023-03-16T06:45:54.362Z,109.00
2023-03-16T06:48:23.721Z,106.17
2023-03-16T06:50:51.583Z,122.40
2023-03-16T06:53:25.956Z,119.70
2023-03-16T06:55:54.898Z,126.53
2023-03-16T06:58:22.997Z,122.33
2023-03-16T07:00:51.704Z,124.17
2023-03-16T07:03:21.867Z,123.80
2023-03-16T07:05:55.642Z,121.63
2023-03-16T07:08:24.249Z,128.33
2023-03-16T07:10:52.295Z,123.13
2023-03-16T07:13:20.204Z,133.33
2023-03-16T07:15:52.140Z,127.33
2023-03-16T07:18:22.617Z,140.87
2023-03-16T07:20:50.566Z,135.20
2023-03-16T07:23:18.222Z,145.47
2023-03-16T07:25:46.089Z,155.10
2023-03-16T07:28:16.657Z,153.57
2023-03-16T07:30:56.675Z,150.83
2023-03-16T07:33:34.663Z,156.03
2023-03-16T07:36:06.455Z,144.70
2023-03-16T07:38:39.927Z,144.10
2023-03-16T07:41:07.741Z,142.97
2023-03-16T07:43:36.495Z,141.67
2023-03-16T07:46:04.228Z,142.43
2023-03-16T07:48:33.471Z,147.23
2023-03-16T07:51:03.549Z,145.13
2023-03-16T07:53:32.129Z,146.70
2023-03-16T07:56:14.309Z,153.73
2023-03-16T07:58:45.361Z,148.57
2023-03-16T08:01:13.156Z,151.47
2023-03-16T08:03:42.241Z,149.53
2023-03-16T08:06:10.764Z,154.87
2023-03-16T08:08:39.103Z,150.00
2023-03-16T08:11:07.592Z,154.10
2023-03-16T08:13:46.916Z,145.67
2023-03-16T08:16:14.983Z,155.73
2023-03-16T08:18:46.378Z,151.13
2023-03-16T08:21:15.870Z,150.47
2023-03-16T08:23:49.327Z,152.10
2023-03-16T08:26:19.825Z,150.37
2023-03-16T08:28:51.798Z,135.13
2023-03-16T08:31:21.207Z,134.47
2023-03-16T08:34:08.316Z,133.07
2023-03-16T08:36:43.703Z,130.90
2023-03-16T08:39:13.166Z,137.40
2023-03-16T08:41:46.005Z,127.27
2023-03-16T08:44:29.640Z,140.37
2023-03-16T08:46:57.471Z,136.97
2023-03-16T08:49:27.214Z,145.07
2023-03-16T08:52:03.980Z,153.47
2023-03-16T08:54:32.516Z,138.30
2023-03-16T08:57:00.416Z,133.77
2023-03-16T08:59:30.524Z,142.27
2023-03-16T09:01:58.688Z,142.17
2023-03-16T09:04:28.303Z,146.37
2023-03-16T09:07:07.926Z,145.40
2023-03-16T09:09:36.500Z,138.10
2023-03-16T09:12:05.918Z,146.33
2023-03-16T09:14:33.885Z,151.03
2023-03-16T09:17:01.513Z,150.90
2023-03-16T09:19:44.278Z,151.50
2023-03-16T09:22:18.322Z,150.90
2023-03-16T09:24:46.008Z,161.20
2023-03-16T09:27:13.712Z,158.80
2023-03-16T09:29:42.535Z,183.20
2023-03-16T09:32:11.108Z,178.63
2023-03-16T09:34:40.267Z,192.00
2023-03-16T09:37:08.155Z,190.20
2023-03-16T09:39:37.084Z,191.43
2023-03-16T09:42:14.923Z,198.20
2023-03-16T09:44:53.662Z,194.80
2023-03-16T09:47:27.225Z,204.77
2023-03-16T09:49:58.132Z,204.83
2023-03-16T09:52:33.563Z,214.03
2023-03-16T09:55:06.368Z,231.47
2023-03-16T09:57:36.764Z,223.43
2023-03-16T10:00:17.207Z,207.60
2023-03-16T10:03:06.316Z,214.90
2023-03-16T10:05:36.827Z,215.17
2023-03-16T10:08:13.061Z,209.13
2023-03-16T10:10:56.647Z,199.97
2023-03-16T10:13:32.234Z,217.23
2023-03-16T10:16:02.937Z,213.48
2023-03-16T10:18:34.880Z,233.02
2023-03-16T10:21:04.474Z,234.20
2023-03-16T10:23:34.298Z,229.10
2023-03-16T10:26:12.953Z,219.95
2023-03-16T10:28:42.335Z,205.98
2023-03-16T10:31:12.116Z,196.57
2023-03-16T10:33:40.450Z,213.68
2023-03-16T10:36:30.465Z,207.82
2023-03-16T10:38:59.675Z,180.80
2023-03-16T10:41:31.199Z,182.15
2023-03-16T10:44:07.104Z,209.48
2023-03-16T10:46:39.520Z,194.40
2023-03-16T10:49:20.495Z,196.38
2023-03-16T10:51:50.153Z,192.57
2023-03-16T10:54:26.051Z,189.93
2023-03-16T10:56:53.728Z,193.35
2023-03-16T10:59:30.259Z,183.40
2023-03-16T11:01:58.226Z,178.73
2023-03-16T11:04:26.554Z,192.88
2023-03-16T11:06:57.602Z,184.48
2023-03-16T11:09:28.101Z,181.68
2023-03-16T11:11:55.740Z,185.95
2023-03-16T11:14:28.224Z,180.63
2023-03-16T11:17:04.259Z,165.45
2023-03-16T11:19:35.616Z,163.45
2023-03-16T11:22:09.522Z,157.55
2023-03-16T11:24:46.603Z,159.10
2023-03-16T11:27:23.264Z,172.30
2023-03-16T11:30:05.470Z,166.82
2023-03-16T11:32:37.260Z,157.45
2023-03-16T11:35:14.149Z,145.65
2023-03-16T11:37:56.852Z,142.82
2023-03-16T11:40:40.097Z,136.30
2023-03-16T11:43:21.707Z,142.30
2023-03-16T11:46:03.614Z,137.30
2023-03-16T11:48:40.243Z,124.25
2023-03-16T11:51:16.653Z,122.68
2023-03-16T11:54:07.724Z,108.35
2023-03-16T11:56:41.000Z,114.68
2023-03-16T11:59:35.984Z,117.50
2023-03-16T12:02:21.316Z,116.50
2023-03-16T12:05:11.564Z,117.43
2023-03-16T12:07:52.591Z,114.45
2023-03-16T12:10:27.093Z,119.60
2023-03-16T12:13:03.186Z,111.05
2023-03-16T12:15:38.369Z,111.28
2023-03-16T12:18:15.703Z,109.88
2023-03-16T12:20:51.414Z,115.78
2023-03-16T12:23:23.276Z,105.88
2023-03-16T12:25:54.362Z,103.35
2023-03-16T12:28:26.584Z,113.68
2023-03-16T12:31:09.876Z,95.93
2023-03-16T12:33:49.798Z,102.55
2023-03-16T12:36:45.386Z,94.32
2023-03-16T12:39:18.598Z,95.55
2023-03-16T12:41:59.559Z,98.55
2023-03-16T12:44:36.603Z,97.78
2023-03-16T12:47:15.259Z,99.78
2023-03-16T12:49:43.342Z,99.13
2023-03-16T12:52:13.497Z,92.07
2023-03-16T12:54:51.673Z,100.38
2023-03-16T12:57:25.820Z,93.57
2023-03-16T12:59:58.546Z,85.00
2023-03-16T13:02:30.133Z,94.80
2023-03-16T13:05:01.959Z,89.88
2023-03-16T13:07:33.349Z,87.53
2023-03-16T13:10:04.546Z,99.97
2023-03-16T13:12:37.057Z,88.15
2023-03-16T13:15:26.600Z,94.55
2023-03-16T13:18:06.462Z,85.47
2023-03-16T13:20:35.825Z,81.85
2023-03-16T13:23:23.151Z,82.10
2023-03-16T13:26:13.999Z,84.10
2023-03-16T13:28:46.998Z,89.00
2023-03-16T13:31:25.173Z,94.30
2023-03-16T13:33:55.606Z,95.05
2023-03-16T13:36:24.246Z,91.15
2023-03-16T13:39:05.465Z,79.35
2023-03-16T13:41:33.099Z,86.38
2023-03-16T13:44:02.092Z,82.45
2023-03-16T13:46:31.703Z,79.97
2023-03-16T13:49:01.051Z,82.45
2023-03-16T13:51:32.013Z,82.90
2023-03-16T13:53:59.736Z,71.80
2023-03-16T13:56:29.337Z,65.47
2023-03-16T13:58:59.384Z,70.55
2023-03-16T14:01:31.983Z,75.15
2023-03-16T14:04:05.607Z,76.35
2023-03-16T14:06:35.235Z,74.57
2023-03-16T14:09:06.292Z,77.30
2023-03-16T14:11:34.043Z,84.43
2023-03-16T14:14:02.111Z,78.50
2023-03-16T14:16:32.031Z,73.97
2023-03-16T14:19:03.714Z,71.68
2023-03-16T14:21:34.915Z,72.38
2023-03-16T14:24:05.312Z,72.38
2023-03-16T14:26:41.685Z,78.50
2023-03-16T14:29:19.398Z,80.70
2023-03-16T14:31:49.550Z,80.93
2023-03-16T14:34:30.120Z,76.78
2023-03-16T14:37:08.761Z,85.25
2023-03-16T14:39:40.566Z,78.60
2023-03-16T14:42:16.059Z,75.57
2023-03-16T14:44:43.693Z,75.40
2023-03-16T14:47:22.574Z,83.55
2023-03-16T14:49:50.371Z,84.78
2023-03-16T14:52:25.377Z,86.10
2023-03-16T14:54:54.936Z,81.32
2023-03-16T14:57:23.023Z,80.68
2023-03-16T14:59:51.104Z,72.85
2023-03-16T15:02:24.069Z,75.38
2023-03-16T15:04:52.544Z,70.55
2023-03-16T15:07:25.015Z,68.10
2023-03-16T15:09:55.487Z,76.53
2023-03-16T15:12:24.994Z,64.10
2023-03-16T15:15:06.688Z,64.43
2023-03-16T15:17:35.720Z,59.05
2023-03-16T15:20:05.188Z,60.22
2023-03-16T15:22:35.457Z,69.15
2023-03-16T15:25:19.374Z,74.90
2023-03-16T15:27:47.966Z,71.10
2023-03-16T15:30:17.773Z,72.20
2023-03-16T15:32:47.050Z,75.93
2023-03-16T15:35:14.839Z,83.47
2023-03-16T15:37:42.691Z,84.22
2023-03-16T15:40:18.740Z,80.18
2023-03-16T15:42:46.988Z,82.80
2023-03-16T15:45:18.553Z,85.80
2023-03-16T15:47:48.354Z,86.47
2023-03-16T15:50:17.890Z,93.55
2023-03-16T15:52:48.935Z,91.18
2023-03-16T15:55:22.621Z,86.85
2023-03-16T15:57:57.545Z,88.15
2023-03-16T16:00:31.742Z,92.07
2023-03-16T16:03:02.042Z,88.45
2023-03-16T16:05:30.635Z,91.88
2023-03-16T16:07:58.653Z,96.10
2023-03-16T16:10:28.579Z,93.93
2023-03-16T16:12:57.906Z,92.90
2023-03-16T16:15:29.355Z,97.75
2023-03-16T16:18:19.820Z,98.60
2023-03-16T16:20:46.934Z,87.47
2023-03-16T16:23:14.673Z,92.75
2023-03-16T16:25:43.452Z,92.55
2023-03-16T16:28:16.405Z,87.95
2023-03-16T16:30:44.978Z,88.25
2023-03-16T16:33:25.922Z,88.90
2023-03-16T16:35:56.615Z,86.28
2023-03-16T16:38:24.984Z,84.50
2023-03-16T16:40:54.428Z,83.28
2023-03-16T16:43:32.864Z,89.97
2023-03-16T16:46:01.546Z,80.70
2023-03-16T16:48:33.308Z,85.82
2023-03-16T16:51:02.552Z,85.97
2023-03-16T16:53:30.972Z,89.43
2023-03-16T16:55:58.681Z,91.28
2023-03-16T16:58:26.355Z,92.65
2023-03-16T17:00:56.757Z,102.50
2023-03-16T17:03:26.997Z,101.95
2023-03-16T17:05:55.995Z,99.40
2023-03-16T17:08:25.740Z,102.95
2023-03-16T17:10:54.819Z,105.00
2023-03-16T17:13:27.784Z,108.15
2023-03-16T17:15:55.895Z,103.90
2023-03-16T17:18:24.330Z,116.00
2023-03-16T17:20:52.384Z,111.87
2023-03-16T17:23:39.414Z,118.10
2023-03-16T17:26:14.732Z,113.55
2023-03-16T17:28:46.471Z,121.97
2023-03-16T17:31:20.247Z,132.20
2023-03-16T17:33:47.904Z,119.37
2023-03-16T17:36:18.170Z,132.47
2023-03-16T17:38:47.846Z,136.57
2023-03-16T17:41:23.075Z,130.57
2023-03-16T17:43:51.329Z,132.73
2023-03-16T17:46:21.361Z,144.40
2023-03-16T17:48:50.822Z,140.77
2023-03-16T17:51:21.044Z,140.70
2023-03-16T17:53:50.307Z,146.17
2023-03-16T17:56:20.437Z,153.70
2023-03-16T17:58:51.122Z,149.37
2023-03-16T18:01:21.454Z,158.47
2023-03-16T18:03:49.174Z,160.30
2023-03-16T18:06:20.742Z,156.83
2023-03-16T18:08:50.388Z,154.23
2023-03-16T18:11:21.572Z,155.63
2023-03-16T18:13:50.548Z,152.33
2023-03-16T18:16:23.119Z,150.87
2023-03-16T18:19:00.744Z,146.37
2023-03-16T18:21:28.583Z,159.73
2023-03-16T18:23:57.911Z,148.60
2023-03-16T18:26:26.293Z,164.20
2023-03-16T18:28:55.421Z,162.57
2023-03-16T18:31:25.686Z,146.17
2023-03-16T18:33:55.966Z,166.57
2023-03-16T18:36:28.144Z,150.33
2023-03-16T18:38:59.447Z,153.43
2023-03-16T18:41:29.136Z,158.83
2023-03-16T18:44:00.365Z,149.53
2023-03-16T18:46:31.300Z,154.33
2023-03-16T18:49:01.935Z,154.27
2023-03-16T18:51:31.111Z,156.30
2023-03-16T18:54:00.139Z,155.33
2023-03-16T18:56:29.434Z,158.97
2023-03-16T18:58:57.829Z,165.00
2023-03-16T19:01:28.282Z,148.03
2023-03-16T19:03:57.734Z,146.17
2023-03-16T19:06:30.381Z,161.77
2023-03-16T19:09:07.622Z,151.90
2023-03-16T19:11:39.833Z,145.87
2023-03-16T19:14:26.737Z,154.60
2023-03-16T19:17:26.304Z,151.23
2023-03-16T19:23:48.746Z,133.40
2023-03-16T19:26:18.088Z,157.00
2023-03-16T19:29:25.649Z,145.60
2023-03-16T19:40:29.382Z,144.60
2023-03-16T19:50:44.243Z,139.27
2023-03-16T19:53:17.888Z,144.10
2023-03-16T19:55:47.856Z,148.93
2023-03-16T19:58:21.832Z,153.80
2023-03-16T20:00:49.596Z,157.50
2023-03-16T20:03:18.640Z,153.67
2023-03-16T20:05:46.256Z,161.50
2023-03-16T20:08:21.437Z,151.27
2023-03-16T20:10:49.554Z,157.37
2023-03-16T20:13:18.287Z,162.67
2023-03-16T20:15:46.456Z,149.77
2023-03-16T20:18:17.137Z,165.10
2023-03-16T20:20:47.218Z,145.83
2023-03-16T20:23:19.513Z,151.87
2023-03-16T20:25:48.460Z,152.50
2023-03-16T20:28:20.588Z,163.37
2023-03-16T20:30:49.604Z,147.33
2023-03-16T20:33:19.948Z,156.83
2023-03-16T20:35:50.825Z,152.03
2023-03-16T20:38:18.464Z,158.23
2023-03-16T20:40:49.195Z,160.53
2023-03-16T20:43:23.639Z,151.63
2023-03-16T20:45:51.519Z,148.50
2023-03-16T20:48:20.107Z,160.23
2023-03-16T20:50:49.742Z,150.20
2023-03-16T20:53:17.361Z,159.70
2023-03-16T20:55:45.152Z,147.90
2023-03-16T20:58:21.733Z,154.03
2023-03-16T21:00:51.133Z,132.60
2023-03-16T21:03:22.309Z,150.53
2023-03-16T21:05:52.653Z,140.63
2023-03-16T21:08:20.716Z,142.77
2023-03-16T21:10:51.108Z,143.73
2023-03-16T21:13:21.378Z,148.53
2023-03-16T21:15:50.630Z,145.10
2023-03-16T21:18:21.486Z,154.73
2023-03-16T21:20:52.934Z,150.80
2023-03-16T21:23:23.222Z,150.93
2023-03-16T21:25:54.692Z,152.37
2023-03-16T21:28:24.806Z,144.20
2023-03-16T21:30:54.614Z,150.67
2023-03-16T21:33:29.798Z,145.57
2023-03-16T21:36:00.307Z,139.33
2023-03-16T21:38:29.708Z,139.13
2023-03-16T21:40:57.730Z,150.27
2023-03-16T21:43:26.684Z,139.23
2023-03-16T21:45:55.029Z,134.13
2023-03-16T21:48:24.790Z,136.80
2023-03-16T21:50:53.778Z,135.10
2023-03-16T21:53:24.927Z,132.13
2023-03-16T21:55:53.309Z,141.97
2023-03-16T21:58:22.126Z,132.27
2023-03-16T22:00:51.721Z,137.53
2023-03-16T22:03:37.764Z,123.60
2023-03-16T22:06:15.662Z,131.73
2023-03-16T22:08:44.722Z,122.67
2023-03-16T22:11:17.217Z,123.13
2023-03-16T22:13:46.376Z,125.37
2023-03-16T22:16:17.142Z,115.97
2023-03-16T22:18:46.966Z,107.53
2023-03-16T22:21:33.308Z,118.73
2023-03-16T22:24:05.210Z,117.40
2023-03-16T22:26:33.140Z,119.60
2023-03-16T22:29:01.804Z,115.87
2023-03-16T22:31:33.824Z,112.93
2023-03-16T22:34:02.616Z,111.80
2023-03-16T22:36:32.809Z,118.50
2023-03-16T22:39:12.211Z,115.97
2023-03-16T22:41:40.050Z,108.90
2023-03-16T22:44:17.944Z,117.77
2023-03-16T22:46:45.575Z,113.97
2023-03-16T22:49:21.135Z,103.27
2023-03-16T22:51:50.529Z,123.87
2023-03-16T22:54:23.076Z,113.27
2023-03-16T22:56:51.276Z,119.83
2023-03-16T22:59:22.031Z,112.10
2023-03-16T23:01:51.153Z,105.43
2023-03-16T23:04:20.876Z,111.60
2023-03-16T23:06:49.948Z,111.50
2023-03-16T23:09:20.710Z,104.27
2023-03-16T23:11:52.331Z,107.00
2023-03-16T23:14:23.111Z,109.80
2023-03-16T23:16:52.435Z,103.90
2023-03-16T23:19:25.205Z,110.07
2023-03-16T23:21:54.757Z,107.37
2023-03-16T23:24:24.173Z,104.67
2023-03-16T23:26:52.999Z,106.60
2023-03-16T23:29:21.617Z,103.77
2023-03-16T23:31:49.612Z,113.10
2023-03-16T23:34:21.274Z,114.50
2023-03-16T23:36:50.180Z,107.73
2023-03-16T23:39:17.960Z,108.53
2023-03-16T23:41:49.356Z,108.50
2023-03-16T23:44:20.223Z,111.27
2023-03-16T23:46:47.894Z,106.50
2023-03-16T23:49:26.186Z,112.80
2023-03-16T23:51:56.643Z,112.53
2023-03-16T23:54:26.034Z,101.97
2023-03-16T23:56:55.141Z,106.77
2023-03-16T23:59:23.462Z,105.50
